Time;durP1;ratioP1;P1;durP2;ratioP2;P2;SDS_P1;SDS_P2;PMS_P1;PMS_P2;Temp;Humidity;BMP_temperature;BMP_pressure;BME280_temperature;BME280_humidity;BME280_pressure;Samples;Min_cycle;Max_cycle;Signal;HPM_P1;HPM_P2
2021/06/22 00:00:46;;;;;;;12.52;5.20;;;;;;;;;;5098465;28;20112;-83
2021/06/22 00:03:13;;;;;;;12.07;5.20;;;;;;;;;;5116572;28;20020;-84
2021/06/22 00:05:39;;;;;;;13.30;5.53;;;;;;;;;;5116424;28;20390;-84
2021/06/22 00:08:05;;;;;;;14.88;5.28;;;;;;;;;;5081596;28;20448;-84
2021/06/22 00:10:32;;;;;;;12.13;5.53;;;;;;;;;;5098032;28;20015;-84
2021/06/22 00:12:58;;;;;;;12.65;5.07;;;;;;;;;;5098206;28;20035;-84
2021/06/22 00:15:30;;;;;;;10.77;4.88;;;;;;;;;;5097817;28;20065;-84
2021/06/22 00:17:56;;;;;;;12.25;4.78;;;;;;;;;;5098008;28;20081;-85
2021/06/22 00:20:23;;;;;;;12.23;5.40;;;;;;;;;;5098049;28;20020;-84
2021/06/22 00:22:49;;;;;;;13.02;5.38;;;;;;;;;;5098462;28;20031;-84
2021/06/22 00:25:16;;;;;;;13.85;4.68;;;;;;;;;;5097983;28;20023;-85
2021/06/22 00:27:43;;;;;;;12.30;5.60;;;;;;;;;;5081019;28;20034;-85
2021/06/22 00:30:09;;;;;;;13.77;5.75;;;;;;;;;;5115873;28;20047;-85
2021/06/22 00:32:36;;;;;;;14.23;4.30;;;;;;;;;;5097605;28;20111;-85
2021/06/22 00:35:02;;;;;;;10.98;4.80;;;;;;;;;;5116212;28;20022;-84
2021/06/22 00:37:28;;;;;;;12.77;5.30;;;;;;;;;;5115884;28;20027;-84
2021/06/22 00:39:54;;;;;;;9.05;4.35;;;;;;;;;;5097601;28;20069;-84
2021/06/22 00:42:20;;;;;;;12.07;3.97;;;;;;;;;;5115898;28;20050;-84
2021/06/22 00:44:47;;;;;;;11.98;4.43;;;;;;;;;;5115693;28;20024;-84
2021/06/22 00:47:23;;;;;;;9.95;4.40;;;;;;;;;;5097799;28;20023;-84
2021/06/22 00:49:49;;;;;;;17.45;5.53;;;;;;;;;;5115836;28;20069;-84
2021/06/22 00:52:19;;;;;;;13.77;5.00;;;;;;;;;;5115713;28;20024;-84
2021/06/22 00:54:45;;;;;;;16.65;4.80;;;;;;;;;;5097801;28;20028;-85
2021/06/22 00:57:12;;;;;;;16.17;5.43;;;;;;;;;;5097554;28;20058;-84
2021/06/22 00:59:38;;;;;;;11.30;5.00;;;;;;;;;;5097283;28;20029;-84
2021/06/22 01:02:05;;;;;;;15.95;6.30;;;;;;;;;;5115700;28;20026;-84
2021/06/22 01:04:32;;;;;;;10.20;4.60;;;;;;;;;;5080263;28;20458;-83
2021/06/22 01:06:59;;;;;;;13.95;5.22;;;;;;;;;;5097212;28;20082;-84
2021/06/22 01:09:25;;;;;;;9.45;4.50;;;;;;;;;;5114259;28;20020;-84
2021/06/22 01:11:52;;;;;;;11.38;5.18;;;;;;;;;;5115319;28;20055;-84
2021/06/22 01:14:18;;;;;;;13.48;4.43;;;;;;;;;;5097040;28;20024;-84
2021/06/22 01:16:45;;;;;;;9.80;4.45;;;;;;;;;;5096927;28;20048;-84
2021/06/22 01:19:11;;;;;;;13.52;4.68;;;;;;;;;;5096998;28;20032;-84
2021/06/22 01:21:38;;;;;;;12.15;4.72;;;;;;;;;;5115068;28;20020;-84
2021/06/22 01:24:14;;;;;;;10.60;4.00;;;;;;;;;;5115131;28;20023;-85
2021/06/22 01:26:51;;;;;;;13.50;5.32;;;;;;;;;;5114943;28;20146;-84
2021/06/22 01:29:17;;;;;;;10.18;4.38;;;;;;;;;;5114664;28;20077;-84
2021/06/22 01:31:43;;;;;;;10.90;4.10;;;;;;;;;;5115041;28;20466;-84
2021/06/22 01:34:10;;;;;;;10.00;4.35;;;;;;;;;;5114882;28;20042;-84
2021/06/22 01:36:37;;;;;;;10.68;5.07;;;;;;;;;;5114934;28;20019;-85
2021/06/22 01:39:06;;;;;;;11.85;4.10;;;;;;;;;;5096501;28;20030;-85
2021/06/22 01:41:32;;;;;;;14.15;4.82;;;;;;;;;;5096557;28;20016;-85
2021/06/22 01:43:59;;;;;;;16.90;5.78;;;;;;;;;;5096531;28;20506;-84
2021/06/22 01:46:25;;;;;;;15.50;5.30;;;;;;;;;;5096344;28;20024;-84
2021/06/22 01:48:51;;;;;;;15.68;5.40;;;;;;;;;;5096349;28;20119;-84
2021/06/22 01:51:18;;;;;;;14.80;5.30;;;;;;;;;;5114365;28;20030;-85
2021/06/22 01:53:51;;;;;;;16.05;4.80;;;;;;;;;;5114569;28;20102;-85
2021/06/22 01:56:18;;;;;;;12.73;5.57;;;;;;;;;;5114353;28;20118;-85
2021/06/22 01:58:44;;;;;;;9.20;4.75;;;;;;;;;;5114428;28;20069;-85
2021/06/22 02:01:10;;;;;;;15.30;4.40;;;;;;;;;;5095960;28;20475;-85
2021/06/22 02:03:36;;;;;;;12.75;4.07;;;;;;;;;;5096107;28;20031;-85
2021/06/22 02:06:02;;;;;;;16.20;5.05;;;;;;;;;;5114254;28;20057;-85
2021/06/22 02:08:29;;;;;;;11.43;4.32;;;;;;;;;;5095833;28;20071;-85
2021/06/22 02:10:57;;;;;;;15.57;6.10;;;;;;;;;;5114274;28;20020;-86
2021/06/22 02:13:25;;;;;;;12.80;4.63;;;;;;;;;;5095657;28;20074;-86
2021/06/22 02:15:51;;;;;;;19.52;5.82;;;;;;;;;;5114127;28;20024;-86
2021/06/22 02:18:20;;;;;;;12.23;5.03;;;;;;;;;;5113766;28;20024;-84
2021/06/22 02:20:49;;;;;;;12.65;5.45;;;;;;;;;;5113822;28;20154;-85
2021/06/22 02:23:15;;;;;;;12.13;4.55;;;;;;;;;;5113632;28;20020;-85
2021/06/22 02:25:41;;;;;;;10.77;4.85;;;;;;;;;;5113869;28;20023;-85
2021/06/22 02:28:12;;;;;;;12.00;5.10;;;;;;;;;;5113808;28;20020;-85
2021/06/22 02:30:39;;;;;;;16.73;4.28;;;;;;;;;;5095611;28;20126;-85
2021/06/22 02:33:06;;;;;;;11.55;4.50;;;;;;;;;;5113586;28;20090;-85
2021/06/22 02:35:32;;;;;;;15.30;5.50;;;;;;;;;;5113642;28;20020;-85
2021/06/22 02:37:59;;;;;;;14.75;5.95;;;;;;;;;;5095542;28;20027;-85
2021/06/22 02:40:27;;;;;;;13.23;4.70;;;;;;;;;;5113356;28;20016;-85
2021/06/22 02:42:59;;;;;;;14.80;4.85;;;;;;;;;;5113667;28;20020;-85
2021/06/22 02:45:26;;;;;;;14.55;5.15;;;;;;;;;;5113264;28;20032;-85
2021/06/22 02:47:52;;;;;;;10.40;4.22;;;;;;;;;;5095313;28;20020;-85
2021/06/22 02:50:19;;;;;;;13.35;5.20;;;;;;;;;;5095004;28;20054;-85
2021/06/22 02:52:45;;;;;;;11.70;3.58;;;;;;;;;;5095226;28;20028;-85
2021/06/22 02:55:18;;;;;;;12.63;4.75;;;;;;;;;;5113204;28;20027;-85
2021/06/22 02:57:52;;;;;;;16.98;4.80;;;;;;;;;;5095198;28;20032;-85
2021/06/22 03:00:20;;;;;;;12.73;4.30;;;;;;;;;;5113299;28;20031;-85
2021/06/22 03:02:46;;;;;;;11.98;4.50;;;;;;;;;;5094923;28;20428;-85
2021/06/22 03:05:12;;;;;;;12.77;4.47;;;;;;;;;;5113083;28;20471;-85
2021/06/22 03:07:39;;;;;;;17.25;4.15;;;;;;;;;;5094845;28;20024;-85
2021/06/22 03:10:06;;;;;;;16.67;5.53;;;;;;;;;;5094743;28;20039;-86
2021/06/22 03:12:32;;;;;;;11.60;5.22;;;;;;;;;;5112873;28;20130;-86
2021/06/22 03:14:58;;;;;;;13.40;5.03;;;;;;;;;;5094640;28;20028;-86
2021/06/22 03:17:25;;;;;;;16.08;5.15;;;;;;;;;;5113105;28;20031;-84
2021/06/22 03:19:51;;;;;;;12.10;4.78;;;;;;;;;;5094813;28;20031;-85
2021/06/22 03:22:17;;;;;;;15.07;4.82;;;;;;;;;;5113027;28;20015;-85
2021/06/22 03:24:44;;;;;;;18.92;5.95;;;;;;;;;;5112968;28;20020;-84
2021/06/22 03:27:10;;;;;;;15.10;4.85;;;;;;;;;;5094587;28;20540;-84
2021/06/22 03:29:36;;;;;;;17.02;4.88;;;;;;;;;;5112748;28;20155;-85
2021/06/22 03:32:02;;;;;;;12.48;4.28;;;;;;;;;;5094228;28;20047;-84
2021/06/22 03:34:28;;;;;;;14.48;4.65;;;;;;;;;;5094743;28;20020;-86
2021/06/22 03:36:54;;;;;;;14.02;4.40;;;;;;;;;;5094669;28;20539;-86
2021/06/22 03:39:20;;;;;;;13.32;4.65;;;;;;;;;;5094344;28;20028;-86
2021/06/22 03:41:47;;;;;;;13.93;5.10;;;;;;;;;;5112656;28;20016;-86
2021/06/22 03:44:13;;;;;;;20.17;5.35;;;;;;;;;;5112579;28;20463;-86
2021/06/22 03:46:42;;;;;;;14.43;4.35;;;;;;;;;;5112830;28;20023;-87
2021/06/22 03:49:09;;;;;;;15.15;4.72;;;;;;;;;;5094274;28;20027;-86
2021/06/22 03:51:35;;;;;;;12.60;5.00;;;;;;;;;;5112549;28;20024;-85
2021/06/22 03:54:01;;;;;;;14.25;5.35;;;;;;;;;;5112714;28;20027;-86
2021/06/22 03:56:28;;;;;;;17.73;5.15;;;;;;;;;;5112494;28;20470;-86
2021/06/22 03:58:55;;;;;;;13.18;4.53;;;;;;;;;;5094331;28;20382;-86
2021/06/22 04:01:22;;;;;;;13.85;5.50;;;;;;;;;;5112400;28;20165;-86
2021/06/22 04:03:48;;;;;;;16.17;5.95;;;;;;;;;;5094376;28;20020;-86
2021/06/22 04:06:15;;;;;;;26.13;12.05;;;;;;;;;;5112408;28;20094;-85
2021/06/22 04:08:42;;;;;;;20.23;8.90;;;;;;;;;;5112490;28;20075;-85
2021/06/22 04:11:08;;;;;;;14.90;5.15;;;;;;;;;;5112394;28;20031;-85
2021/06/22 04:13:34;;;;;;;13.73;4.53;;;;;;;;;;5112309;28;20386;-85
2021/06/22 04:16:01;;;;;;;14.60;4.43;;;;;;;;;;5112593;28;20160;-88
2021/06/22 04:18:27;;;;;;;15.00;4.90;;;;;;;;;;5094045;28;20035;-87
2021/06/22 04:20:53;;;;;;;20.23;6.32;;;;;;;;;;5112452;28;20481;-85
2021/06/22 04:23:22;;;;;;;19.48;5.63;;;;;;;;;;5112358;28;20098;-84
2021/06/22 04:25:50;;;;;;;16.40;4.50;;;;;;;;;;5112350;28;20020;-80
2021/06/22 04:28:16;;;;;;;18.08;8.35;;;;;;;;;;5111939;28;20054;-82
2021/06/22 04:30:43;;;;;;;15.48;6.13;;;;;;;;;;5112328;28;20032;-81
2021/06/22 04:33:09;;;;;;;20.08;6.05;;;;;;;;;;5112180;28;20026;-82
2021/06/22 04:35:36;;;;;;;16.40;5.57;;;;;;;;;;5112278;28;20020;-81
2021/06/22 04:38:03;;;;;;;25.20;12.50;;;;;;;;;;5112353;28;20098;-81
2021/06/22 04:40:29;;;;;;;22.17;13.15;;;;;;;;;;5112028;28;20107;-82
2021/06/22 04:42:56;;;;;;;18.02;5.40;;;;;;;;;;5112284;28;20026;-82
2021/06/22 04:45:22;;;;;;;17.80;8.68;;;;;;;;;;5114888;28;20110;-82
2021/06/22 04:47:48;;;;;;;32.10;20.85;;;;;;;;;;5115845;28;20092;-81
2021/06/22 04:50:14;;;;;;;13.57;6.32;;;;;;;;;;5115779;28;20032;-82
2021/06/22 04:52:40;;;;;;;13.18;5.25;;;;;;;;;;5115654;28;20023;-81
2021/06/22 04:55:12;;;;;;;15.43;4.65;;;;;;;;;;5115743;28;20095;-82
2021/06/22 04:57:39;;;;;;;14.07;5.38;;;;;;;;;;5115547;28;20023;-82
2021/06/22 05:00:06;;;;;;;15.10;5.63;;;;;;;;;;5097266;28;20031;-81
2021/06/22 05:02:34;;;;;;;16.83;5.88;;;;;;;;;;5115535;28;20530;-82
2021/06/22 05:05:00;;;;;;;13.65;3.90;;;;;;;;;;5114793;27;20027;-82
2021/06/22 05:07:26;;;;;;;15.48;5.53;;;;;;;;;;5134955;27;20042;-83
2021/06/22 05:09:52;;;;;;;15.60;4.93;;;;;;;;;;5115344;27;20030;-82
2021/06/22 05:12:18;;;;;;;16.40;5.30;;;;;;;;;;5135824;27;20050;-82
2021/06/22 05:14:44;;;;;;;11.23;4.65;;;;;;;;;;5117556;27;20478;-83
2021/06/22 05:17:10;;;;;;;10.65;5.13;;;;;;;;;;5135930;27;20027;-82
2021/06/22 05:19:36;;;;;;;10.48;4.85;;;;;;;;;;5115210;28;20034;-81
2021/06/22 05:22:02;;;;;;;14.35;4.60;;;;;;;;;;5115239;28;20028;-83
2021/06/22 05:24:29;;;;;;;12.73;4.97;;;;;;;;;;5112941;28;20026;-84
2021/06/22 05:26:55;;;;;;;10.43;4.10;;;;;;;;;;5076088;28;20055;-84
2021/06/22 05:29:21;;;;;;;12.20;4.53;;;;;;;;;;5094288;28;20124;-87
2021/06/22 05:31:47;;;;;;;15.57;4.65;;;;;;;;;;5059901;28;20040;-82
2021/06/22 05:34:13;;;;;;;11.82;4.55;;;;;;;;;;5075539;28;20028;-86
2021/06/22 05:36:40;;;;;;;14.18;3.58;;;;;;;;;;5066022;28;20475;-83
2021/06/22 05:39:06;;;;;;;14.93;4.28;;;;;;;;;;5073085;28;20445;-85
2021/06/22 05:41:32;;;;;;;17.35;7.32;;;;;;;;;;5088095;28;20043;-84
2021/06/22 05:43:58;;;;;;;14.93;5.03;;;;;;;;;;5085703;28;20036;-83
2021/06/22 05:46:24;;;;;;;15.45;5.28;;;;;;;;;;5063522;28;20052;-85
2021/06/22 05:48:50;;;;;;;15.45;6.38;;;;;;;;;;5065760;28;20036;-83
2021/06/22 05:51:17;;;;;;;11.52;4.60;;;;;;;;;;5064708;28;20039;-85
2021/06/22 05:53:43;;;;;;;14.15;4.82;;;;;;;;;;5087069;28;20024;-86
2021/06/22 05:56:09;;;;;;;12.23;5.05;;;;;;;;;;5086521;28;20394;-84
2021/06/22 05:58:35;;;;;;;14.82;4.82;;;;;;;;;;5075857;28;20028;-86
2021/06/22 06:01:01;;;;;;;16.73;6.10;;;;;;;;;;5071745;28;20036;-85
2021/06/22 06:03:28;;;;;;;18.92;6.65;;;;;;;;;;5058889;28;20028;-87
2021/06/22 06:05:54;;;;;;;13.93;4.78;;;;;;;;;;5075631;28;20032;-83
2021/06/22 06:08:20;;;;;;;13.38;5.55;;;;;;;;;;5069497;28;20031;-83
2021/06/22 06:10:46;;;;;;;16.75;6.32;;;;;;;;;;5072568;28;20081;-84
2021/06/22 06:13:13;;;;;;;13.27;4.78;;;;;;;;;;5093458;28;20032;-85
2021/06/22 06:15:39;;;;;;;17.45;5.60;;;;;;;;;;5055111;28;20128;-84
2021/06/22 06:18:08;;;;;;;16.50;4.93;;;;;;;;;;5073069;28;20046;-85
2021/06/22 06:20:34;;;;;;;15.32;5.00;;;;;;;;;;5081801;28;20520;-85
2021/06/22 06:23:00;;;;;;;16.27;5.38;;;;;;;;;;5075305;28;20051;-85
2021/06/22 06:25:26;;;;;;;16.58;5.68;;;;;;;;;;5090861;28;20024;-84
2021/06/22 06:30:26;;;;;;;15.25;5.55;;;;;;;;;;5082635;28;20044;-86
2021/06/22 06:32:53;;;;;;;18.05;5.45;;;;;;;;;;5080093;28;20024;-85
2021/06/22 06:35:20;;;;;;;14.02;6.05;;;;;;;;;;5108243;28;20042;-84
2021/06/22 06:37:46;;;;;;;13.02;5.15;;;;;;;;;;5092786;28;20024;-86
2021/06/22 06:40:13;;;;;;;14.68;7.03;;;;;;;;;;5095257;28;20036;-83
2021/06/22 06:42:39;;;;;;;14.32;7.57;;;;;;;;;;5100225;28;20035;-87
2021/06/22 06:45:06;;;;;;;17.95;6.05;;;;;;;;;;5093379;28;20391;-84
2021/06/22 06:47:32;;;;;;;14.65;5.68;;;;;;;;;;5074738;28;20024;-88
2021/06/22 06:49:58;;;;;;;14.30;4.40;;;;;;;;;;5082863;28;20035;-85
2021/06/22 06:52:24;;;;;;;14.88;5.65;;;;;;;;;;5073839;28;20031;-85
2021/06/22 06:54:50;;;;;;;13.82;6.30;;;;;;;;;;5108751;28;20050;-85
2021/06/22 06:57:19;;;;;;;16.20;5.60;;;;;;;;;;5112135;28;20058;-91
2021/06/22 06:59:46;;;;;;;18.58;7.53;;;;;;;;;;5077091;28;20429;-85
2021/06/22 07:02:12;;;;;;;13.88;5.45;;;;;;;;;;5113392;28;20088;-88
2021/06/22 07:04:38;;;;;;;16.90;5.70;;;;;;;;;;5083680;28;20069;-88
2021/06/22 07:07:04;;;;;;;15.27;5.68;;;;;;;;;;5092757;28;20027;-84
2021/06/22 07:09:30;;;;;;;15.45;5.22;;;;;;;;;;5112664;28;20107;-85
2021/06/22 07:11:57;;;;;;;13.50;5.90;;;;;;;;;;5112857;28;20417;-85
2021/06/22 07:14:24;;;;;;;13.88;5.80;;;;;;;;;;5095270;28;20027;-87
2021/06/22 07:16:50;;;;;;;14.38;5.18;;;;;;;;;;5077744;28;20070;-87
2021/06/22 07:19:18;;;;;;;16.45;7.05;;;;;;;;;;5094674;28;20558;-82
2021/06/22 07:21:45;;;;;;;16.83;7.57;;;;;;;;;;5105947;28;20024;-83
2021/06/22 07:24:11;;;;;;;17.40;6.65;;;;;;;;;;5112109;28;20020;-84
2021/06/22 07:26:38;;;;;;;16.40;6.10;;;;;;;;;;5097352;28;20032;-85
2021/06/22 07:29:04;;;;;;;13.93;5.35;;;;;;;;;;5079635;28;20506;-82
2021/06/22 07:31:31;;;;;;;12.77;5.22;;;;;;;;;;5101192;28;20031;-84
2021/06/22 07:33:57;;;;;;;10.95;4.75;;;;;;;;;;5082196;28;20395;-84
2021/06/22 07:36:23;;;;;;;14.05;4.38;;;;;;;;;;5103238;28;20027;-85
2021/06/22 07:38:49;;;;;;;15.60;4.60;;;;;;;;;;5091827;28;20534;-80
2021/06/22 07:41:17;;;;;;;13.10;4.93;;;;;;;;;;5092272;28;20020;-82
2021/06/22 07:43:43;;;;;;;12.25;4.55;;;;;;;;;;5092148;28;20024;-83
2021/06/22 07:46:09;;;;;;;13.85;4.65;;;;;;;;;;5091766;28;20028;-78
2021/06/22 07:48:36;;;;;;;12.73;4.80;;;;;;;;;;5092212;28;20052;-80
2021/06/22 07:51:02;;;;;;;15.18;5.18;;;;;;;;;;5093327;28;20032;-82
2021/06/22 07:53:28;;;;;;;11.10;5.00;;;;;;;;;;5112121;28;20019;-83
2021/06/22 07:55:54;;;;;;;18.05;6.60;;;;;;;;;;5111498;28;20470;-81
2021/06/22 07:58:20;;;;;;;15.50;5.47;;;;;;;;;;5093905;28;20026;-85
2021/06/22 08:00:48;;;;;;;14.73;4.03;;;;;;;;;;5111372;28;20025;-82
2021/06/22 08:03:24;;;;;;;32.08;23.45;;;;;;;;;;5093647;28;20043;-81
2021/06/22 08:05:52;;;;;;;57.83;48.35;;;;;;;;;;5093480;28;20023;-82
2021/06/22 08:08:20;;;;;;;19.55;9.30;;;;;;;;;;5090629;28;20024;-85
2021/06/22 08:10:47;;;;;;;14.95;5.35;;;;;;;;;;5110424;28;20122;-86
2021/06/22 08:13:13;;;;;;;14.10;4.82;;;;;;;;;;5112340;28;20016;-83
2021/06/22 08:15:40;;;;;;;11.32;5.20;;;;;;;;;;5112315;28;20519;-82
2021/06/22 08:18:06;;;;;;;23.00;14.20;;;;;;;;;;5104833;28;20027;-78
2021/06/22 08:20:32;;;;;;;19.98;11.25;;;;;;;;;;5116181;28;20072;-79
2021/06/22 08:22:59;;;;;;;9.95;4.40;;;;;;;;;;5115856;28;20026;-86
2021/06/22 08:25:26;;;;;;;18.27;5.60;;;;;;;;;;5115413;28;20390;-82
2021/06/22 08:27:52;;;;;;;15.60;6.60;;;;;;;;;;5109293;28;20020;-84
2021/06/22 08:30:19;;;;;;;14.70;5.15;;;;;;;;;;5077865;28;20045;-84
2021/06/22 08:32:46;;;;;;;11.50;6.03;;;;;;;;;;5075333;28;20467;-86
2021/06/22 08:35:12;;;;;;;12.32;5.13;;;;;;;;;;5050892;28;20033;-82
2021/06/22 08:37:38;;;;;;;13.95;5.85;;;;;;;;;;5097869;28;20408;-83
2021/06/22 08:40:06;;;;;;;14.65;5.10;;;;;;;;;;5094727;28;20036;-82
2021/06/22 08:42:34;;;;;;;19.88;6.63;;;;;;;;;;5109890;28;20034;-82
2021/06/22 08:45:01;;;;;;;16.27;7.25;;;;;;;;;;5115764;28;20015;-83
2021/06/22 08:47:27;;;;;;;12.65;4.90;;;;;;;;;;5115888;28;20026;-82
2021/06/22 08:49:56;;;;;;;27.60;18.13;;;;;;;;;;5115497;28;20027;-82
2021/06/22 08:52:24;;;;;;;12.52;5.10;;;;;;;;;;5064346;28;20078;-83
2021/06/22 08:54:50;;;;;;;16.98;5.97;;;;;;;;;;5097018;28;20064;-82
2021/06/22 08:57:17;;;;;;;11.63;5.05;;;;;;;;;;5084662;28;20024;-82
2021/06/22 08:59:43;;;;;;;12.50;4.07;;;;;;;;;;5104334;28;20053;-83
2021/06/22 09:02:09;;;;;;;16.42;4.97;;;;;;;;;;5115218;28;20470;-83
2021/06/22 09:04:35;;;;;;;17.52;5.75;;;;;;;;;;5115081;28;20027;-80
2021/06/22 09:07:01;;;;;;;16.63;4.15;;;;;;;;;;5085779;28;20034;-81
2021/06/22 09:09:46;;;;;;;11.80;4.00;;;;;;;;;;5105125;28;20026;-81
2021/06/22 09:12:13;;;;;;;16.85;5.18;;;;;;;;;;5114826;28;20120;-84
2021/06/22 09:14:41;;;;;;;14.38;4.75;;;;;;;;;;5115376;28;20035;-83
2021/06/22 09:17:07;;;;;;;11.85;4.65;;;;;;;;;;5115025;28;20020;-80
2021/06/22 09:19:34;;;;;;;12.00;5.10;;;;;;;;;;5115006;28;20023;-83
2021/06/22 09:22:19;;;;;;;12.18;4.40;;;;;;;;;;5095288;28;20020;-86
2021/06/22 09:25:21;;;;;;;14.95;4.88;;;;;;;;;;5081854;28;20028;-82
2021/06/22 09:28:05;;;;;;;12.43;4.25;;;;;;;;;;4996010;28;20022;-84
2021/06/22 09:30:43;;;;;;;14.20;4.80;;;;;;;;;;5030444;28;20082;-84
2021/06/22 09:33:15;;;;;;;13.35;4.65;;;;;;;;;;5031980;28;20029;-85
2021/06/22 09:35:41;;;;;;;16.52;5.20;;;;;;;;;;5081793;27;20046;-84
2021/06/22 09:38:07;;;;;;;15.05;5.15;;;;;;;;;;5132743;27;20028;-82
2021/06/22 09:40:33;;;;;;;13.05;4.72;;;;;;;;;;5114541;28;20130;-80
2021/06/22 09:42:59;;;;;;;13.90;4.63;;;;;;;;;;5122942;27;20031;-84
2021/06/22 09:45:29;;;;;;;12.88;4.50;;;;;;;;;;5132491;27;20398;-80
2021/06/22 09:47:59;;;;;;;15.23;5.53;;;;;;;;;;5115477;28;20020;-81
2021/06/22 09:50:44;;;;;;;14.77;4.55;;;;;;;;;;5116965;27;20023;-80
2021/06/22 09:53:29;;;;;;;21.08;5.70;;;;;;;;;;5118261;27;20031;-80
2021/06/22 09:55:56;;;;;;;15.95;5.65;;;;;;;;;;5124483;27;20027;-80
2021/06/22 09:58:39;;;;;;;12.88;4.68;;;;;;;;;;5134459;27;20031;-79
2021/06/22 10:01:05;;;;;;;14.40;4.50;;;;;;;;;;5134962;27;20461;-79
2021/06/22 10:03:38;;;;;;;14.32;4.43;;;;;;;;;;5135013;27;20072;-83
2021/06/22 10:06:09;;;;;;;12.38;3.85;;;;;;;;;;5134683;27;20019;-80
2021/06/22 10:08:53;;;;;;;16.75;4.43;;;;;;;;;;5116267;27;20107;-78
2021/06/22 10:11:30;;;;;;;19.08;5.32;;;;;;;;;;5113496;28;20077;-86
2021/06/22 10:13:56;;;;;;;17.58;5.60;;;;;;;;;;5095673;28;20020;-81
2021/06/22 10:16:23;;;;;;;19.23;5.55;;;;;;;;;;5074482;28;20031;-85
2021/06/22 10:18:50;;;;;;;15.38;4.78;;;;;;;;;;5092703;28;20600;-83
2021/06/22 10:21:17;;;;;;;15.80;4.75;;;;;;;;;;5093570;27;20026;-86
2021/06/22 10:23:43;;;;;;;22.00;8.32;;;;;;;;;;5081288;28;20032;-79
2021/06/22 10:26:09;;;;;;;20.85;6.40;;;;;;;;;;5128760;27;20439;-82
2021/06/22 10:28:35;;;;;;;18.70;4.45;;;;;;;;;;5126880;27;20070;-81
2021/06/22 10:31:01;;;;;;;21.95;5.50;;;;;;;;;;5112748;28;20016;-82
2021/06/22 10:33:28;;;;;;;22.15;5.32;;;;;;;;;;5124665;27;20015;-82
2021/06/22 10:35:54;;;;;;;17.13;4.97;;;;;;;;;;5114836;27;20024;-81
2021/06/22 10:38:22;;;;;;;20.45;5.53;;;;;;;;;;5134118;27;20023;-79
2021/06/22 10:40:57;;;;;;;18.63;5.32;;;;;;;;;;5133701;27;20047;-83
2021/06/22 10:43:45;;;;;;;25.38;6.20;;;;;;;;;;5133559;27;20023;-83
2021/06/22 10:46:16;;;;;;;26.65;5.25;;;;;;;;;;5133957;27;20050;-82
2021/06/22 10:48:43;;;;;;;16.33;5.35;;;;;;;;;;5133366;27;20022;-84
2021/06/22 10:51:31;;;;;;;17.67;4.55;;;;;;;;;;5133882;27;20509;-82
2021/06/22 10:54:00;;;;;;;24.38;5.35;;;;;;;;;;5112757;28;20122;-83
2021/06/22 10:56:28;;;;;;;22.27;5.45;;;;;;;;;;5095327;28;20145;-81
2021/06/22 10:59:14;;;;;;;21.60;5.38;;;;;;;;;;5092806;28;20028;-82
2021/06/22 11:02:07;;;;;;;20.55;8.90;;;;;;;;;;5092606;28;20486;-83
2021/06/22 11:04:34;;;;;;;22.40;6.07;;;;;;;;;;5088505;28;20067;-80
2021/06/22 11:07:00;;;;;;;20.35;4.65;;;;;;;;;;5091984;28;20043;-82
2021/06/22 11:09:27;;;;;;;18.38;4.50;;;;;;;;;;5110534;28;20459;-80
2021/06/22 11:12:11;;;;;;;16.98;6.80;;;;;;;;;;5112468;28;20073;-80
2021/06/22 11:14:56;;;;;;;19.70;6.20;;;;;;;;;;5112917;28;20436;-81
2021/06/22 11:17:43;;;;;;;21.27;5.45;;;;;;;;;;5113106;28;20023;-81
2021/06/22 11:20:13;;;;;;;11.88;4.15;;;;;;;;;;5099959;27;20035;-86
2021/06/22 11:22:58;;;;;;;22.92;7.18;;;;;;;;;;5099837;28;20055;-83
2021/06/22 11:25:44;;;;;;;23.23;6.22;;;;;;;;;;5082253;28;20077;-80
2021/06/22 11:28:10;;;;;;;15.73;6.25;;;;;;;;;;5106664;28;20102;-82
2021/06/22 11:30:58;;;;;;;18.05;6.13;;;;;;;;;;5104481;28;20044;-81
2021/06/22 11:33:46;;;;;;;20.08;5.53;;;;;;;;;;5094368;28;20107;-84
2021/06/22 11:36:15;;;;;;;18.63;4.95;;;;;;;;;;5111553;28;20028;-80
2021/06/22 11:38:42;;;;;;;22.67;7.15;;;;;;;;;;5106606;28;20026;-79
2021/06/22 11:41:15;;;;;;;18.85;5.15;;;;;;;;;;5112188;28;20081;-80
2021/06/22 11:44:00;;;;;;;21.23;6.60;;;;;;;;;;5112724;28;20090;-83
2021/06/22 11:46:27;;;;;;;23.23;9.35;;;;;;;;;;5092818;28;20016;-84
2021/06/22 11:49:15;;;;;;;24.85;8.55;;;;;;;;;;5096468;28;20421;-85
2021/06/22 11:51:47;;;;;;;25.40;6.78;;;;;;;;;;5103335;28;20039;-79
2021/06/22 11:54:17;;;;;;;22.73;6.30;;;;;;;;;;5115626;28;20020;-72
2021/06/22 11:56:44;;;;;;;23.05;5.22;;;;;;;;;;5116257;28;20020;-80
2021/06/22 11:59:10;;;;;;;20.60;5.60;;;;;;;;;;5116792;28;20035;-80
2021/06/22 12:01:37;;;;;;;27.45;6.45;;;;;;;;;;5133288;27;20093;-79
2021/06/22 12:04:05;;;;;;;24.20;5.93;;;;;;;;;;5136607;27;20088;-82
2021/06/22 12:06:31;;;;;;;21.70;5.47;;;;;;;;;;5137008;27;20011;-81
2021/06/22 12:08:58;;;;;;;20.95;5.18;;;;;;;;;;5124684;27;20089;-81
2021/06/22 12:11:36;;;;;;;21.58;5.93;;;;;;;;;;5115955;28;20471;-78
2021/06/22 12:14:03;;;;;;;31.13;6.28;;;;;;;;;;5116224;28;20051;-82
2021/06/22 12:16:33;;;;;;;19.92;4.72;;;;;;;;;;5116330;28;20059;-81
2021/06/22 12:19:04;;;;;;;27.10;5.78;;;;;;;;;;5115529;28;20848;-83
2021/06/22 12:21:33;;;;;;;20.40;5.20;;;;;;;;;;5097976;28;20034;-85
2021/06/22 12:23:59;;;;;;;21.98;5.03;;;;;;;;;;5098204;27;20552;-82
2021/06/22 12:26:26;;;;;;;22.27;4.65;;;;;;;;;;5129277;27;20020;-82
2021/06/22 12:28:52;;;;;;;27.45;6.47;;;;;;;;;;5124637;27;20051;-83
2021/06/22 12:31:18;;;;;;;26.67;6.25;;;;;;;;;;5122917;27;20080;-82
2021/06/22 12:33:46;;;;;;;21.75;6.00;;;;;;;;;;5126883;27;20058;-82
2021/06/22 12:36:15;;;;;;;24.55;5.68;;;;;;;;;;5122247;27;20494;-79
2021/06/22 12:38:41;;;;;;;22.10;7.43;;;;;;;;;;5133934;27;20058;-84
2021/06/22 12:41:09;;;;;;;30.00;6.32;;;;;;;;;;5116852;27;20130;-82
2021/06/22 12:43:54;;;;;;;25.05;6.00;;;;;;;;;;5097491;28;20039;-82
2021/06/22 12:46:24;;;;;;;22.63;5.85;;;;;;;;;;5097885;28;20023;-84
2021/06/22 12:49:01;;;;;;;24.00;6.13;;;;;;;;;;5129957;27;20023;-83
2021/06/22 12:51:37;;;;;;;26.17;6.50;;;;;;;;;;5136237;27;20106;-83
2021/06/22 12:54:04;;;;;;;27.08;6.90;;;;;;;;;;5086219;27;20025;-83
2021/06/22 12:56:31;;;;;;;26.67;5.82;;;;;;;;;;5126733;27;20024;-85
2021/06/22 12:59:00;;;;;;;18.10;6.32;;;;;;;;;;5102990;28;20374;-84
2021/06/22 13:01:26;;;;;;;29.58;5.75;;;;;;;;;;5097153;28;20023;-84
2021/06/22 13:03:52;;;;;;;30.73;7.22;;;;;;;;;;5115352;27;20129;-83
2021/06/22 13:06:37;;;;;;;27.70;6.22;;;;;;;;;;5135177;27;20067;-83
2021/06/22 13:09:05;;;;;;;22.65;6.65;;;;;;;;;;5125367;27;20509;-83
2021/06/22 13:11:33;;;;;;;31.75;11.98;;;;;;;;;;5120983;27;20028;-82
2021/06/22 13:14:25;;;;;;;30.58;6.20;;;;;;;;;;5123140;27;20041;-83
2021/06/22 13:17:10;;;;;;;29.92;9.90;;;;;;;;;;5120965;27;20046;-83
2021/06/22 13:19:43;;;;;;;27.83;8.32;;;;;;;;;;5115029;28;20020;-83
2021/06/22 13:22:10;;;;;;;34.40;19.27;;;;;;;;;;5096196;28;20031;-80
2021/06/22 13:24:40;;;;;;;26.13;6.28;;;;;;;;;;5120197;27;20015;-78
2021/06/22 13:27:08;;;;;;;27.63;5.60;;;;;;;;;;5133729;27;20023;-84
2021/06/22 13:29:53;;;;;;;24.90;5.93;;;;;;;;;;5135327;27;20498;-84
2021/06/22 13:32:38;;;;;;;25.85;5.55;;;;;;;;;;5135279;27;20103;-82
2021/06/22 13:35:06;;;;;;;29.00;6.20;;;;;;;;;;5117088;27;20042;-83
2021/06/22 13:37:33;;;;;;;34.75;6.72;;;;;;;;;;5116846;27;20085;-82
2021/06/22 13:40:00;;;;;;;28.33;6.97;;;;;;;;;;5135169;27;20030;-83
2021/06/22 13:42:27;;;;;;;23.85;6.15;;;;;;;;;;5135196;27;20027;-84
2021/06/22 13:44:54;;;;;;;30.05;5.95;;;;;;;;;;5135577;27;20053;-82
2021/06/22 13:47:41;;;;;;;33.05;6.90;;;;;;;;;;5135049;27;20033;-81
2021/06/22 13:50:26;;;;;;;22.77;6.03;;;;;;;;;;5116691;27;20477;-83
2021/06/22 13:52:53;;;;;;;25.13;6.78;;;;;;;;;;5116969;27;20388;-84
2021/06/22 13:55:35;;;;;;;26.40;6.13;;;;;;;;;;5134935;27;20613;-83
2021/06/22 13:58:08;;;;;;;27.75;6.78;;;;;;;;;;5116474;27;20054;-82
2021/06/22 14:00:35;;;;;;;23.92;6.18;;;;;;;;;;5134717;27;20520;-81
2021/06/22 14:03:01;;;;;;;26.40;5.90;;;;;;;;;;5135159;27;20031;-84
2021/06/22 14:05:32;;;;;;;24.02;5.97;;;;;;;;;;5125269;27;20016;-83
2021/06/22 14:08:08;;;;;;;30.30;6.65;;;;;;;;;;5076133;28;20032;-87
2021/06/22 14:10:35;;;;;;;30.77;7.38;;;;;;;;;;5098573;28;20099;-83
2021/06/22 14:13:04;;;;;;;30.20;6.75;;;;;;;;;;5095833;28;20062;-83
2021/06/22 14:15:30;;;;;;;25.80;6.18;;;;;;;;;;5113574;28;20055;-83
2021/06/22 14:17:57;;;;;;;29.20;6.43;;;;;;;;;;5114204;28;20027;-83
2021/06/22 14:20:24;;;;;;;25.88;6.15;;;;;;;;;;5113710;28;20020;-83
2021/06/22 14:22:50;;;;;;;35.58;13.02;;;;;;;;;;5113835;28;20080;-81
2021/06/22 14:25:16;;;;;;;27.80;7.20;;;;;;;;;;5113923;28;20050;-83
2021/06/22 14:27:42;;;;;;;28.27;6.90;;;;;;;;;;5113409;28;20023;-82
2021/06/22 14:30:13;;;;;;;28.92;6.43;;;;;;;;;;5095597;28;20181;-74
2021/06/22 14:32:39;;;;;;;23.30;6.43;;;;;;;;;;5113907;28;20094;-82
2021/06/22 14:35:08;;;;;;;25.20;5.88;;;;;;;;;;5114048;28;20024;-83
2021/06/22 14:37:34;;;;;;;24.52;6.57;;;;;;;;;;5113521;28;20022;-82
2021/06/22 14:40:01;;;;;;;27.17;5.85;;;;;;;;;;5113714;28;20028;-85